Audubon Park, New Jersey
Current Conditions -  °F | °C
As of 8:54 PM on Friday 24 Oct 2014 (Local Time) from KPHL Reporting Station
Broken Clouds Broken Clouds  
Wind Chill: 61°   Ceiling: 25000
Heat Index: 61°   Visibility: 10mi
Dew Point: 38°   Wind: 6mph
Humidity: 42%   Direction: 290°WNW
Pressure: 29.87"   Gusts: NA
Location:  39.891°N, 75.0738°W
Report Text: KPHL 250054Z 29005KT 10SM BKN250 16/03 A2987 RMK AO2 SLP113 T01610033
Loading
Personal Weather Stations






























Interactive Weather Map
Tropical Storm Tracking
New forecast layout! Learn more

10-Day Weather Forecast

Advertisements
Track Severe Weather on mobile